createdAt,value
2023-03-27T00:00:58.000Z,4.1
2023-03-27T00:02:10.000Z,5.4
2023-03-27T00:03:22.000Z,4.8
2023-03-27T00:04:35.000Z,5.1
2023-03-27T00:05:47.000Z,5.1
2023-03-27T00:06:59.000Z,4.8
2023-03-27T00:08:11.000Z,4.8
2023-03-27T00:09:23.000Z,2.9
2023-03-27T00:10:36.000Z,4.8
2023-03-27T00:11:48.000Z,7.7
2023-03-27T00:13:00.000Z,6.1
2023-03-27T00:14:12.000Z,4.8
2023-03-27T00:15:23.000Z,7.4
2023-03-27T00:16:36.000Z,6.7
2023-03-27T00:17:48.000Z,4.8
2023-03-27T00:19:00.000Z,4.5
2023-03-27T00:20:12.000Z,4.8
2023-03-27T00:21:24.000Z,5.1
2023-03-27T00:22:35.000Z,4.5
2023-03-27T00:23:48.000Z,4.8
2023-03-27T00:25:00.000Z,4.8
2023-03-27T00:26:12.000Z,3.2
2023-03-27T00:27:24.000Z,2.5
2023-03-27T00:28:36.000Z,4.5
2023-03-27T00:29:49.000Z,3.2
2023-03-27T00:31:01.000Z,5.1
2023-03-27T00:32:13.000Z,4.1
2023-03-27T00:33:25.000Z,4.8
2023-03-27T00:34:37.000Z,4.5
2023-03-27T00:35:49.000Z,4.5
2023-03-27T00:37:02.000Z,6.4
2023-03-27T00:38:13.000Z,4.5
2023-03-27T00:39:25.000Z,2.5
2023-03-27T00:40:37.000Z,8.7
2023-03-27T00:42:39.637Z,4.5
2023-03-27T00:43:02.000Z,6.7
2023-03-27T00:44:14.000Z,4.5
2023-03-27T00:45:26.000Z,6.4
2023-03-27T00:46:38.000Z,4.8
2023-03-27T00:47:50.000Z,4.8
2023-03-27T00:49:03.000Z,4.5
2023-03-27T00:50:15.000Z,4.8
2023-03-27T00:51:27.000Z,1.9
2023-03-27T00:52:39.000Z,4.8
2023-03-27T00:53:50.000Z,2.5
2023-03-27T00:55:02.000Z,6.7
2023-03-27T00:56:15.000Z,4.5
2023-03-27T00:57:27.000Z,4.1
2023-03-27T00:58:39.000Z,4.5
2023-03-27T00:59:51.000Z,4.5
2023-03-27T01:01:03.000Z,4.8
2023-03-27T01:02:16.000Z,2.2
2023-03-27T01:03:28.000Z,7
2023-03-27T01:04:40.000Z,4.8
2023-03-27T01:05:52.000Z,4.5
2023-03-27T01:07:04.000Z,4.8
2023-03-27T01:08:16.000Z,1.6
2023-03-27T01:09:28.000Z,4.5
2023-03-27T01:10:40.000Z,5.8
2023-03-27T01:11:52.000Z,4.5
2023-03-27T01:13:04.000Z,4.5
2023-03-27T01:14:16.000Z,6.4
2023-03-27T01:15:29.000Z,4.5
2023-03-27T01:16:41.000Z,2.9
2023-03-27T01:17:53.000Z,2.2
2023-03-27T01:19:05.000Z,2.9
2023-03-27T01:20:17.000Z,2.2
2023-03-27T01:21:29.000Z,4.5
2023-03-27T01:22:42.000Z,2.9
2023-03-27T01:23:54.000Z,3.8
2023-03-27T01:25:05.000Z,2.5
2023-03-27T01:26:17.000Z,1.6
2023-03-27T01:27:29.000Z,4.5
2023-03-27T01:28:42.000Z,4.1
2023-03-27T01:29:54.000Z,4.1
2023-03-27T01:31:06.000Z,6.1
2023-03-27T01:32:18.000Z,2.5
2023-03-27T01:33:30.000Z,4.1
2023-03-27T01:35:32.812Z,4.5
2023-03-27T01:35:55.000Z,4.5
2023-03-27T01:37:07.000Z,4.5
2023-03-27T01:38:19.000Z,6.4
2023-03-27T01:39:31.000Z,4.8
2023-03-27T01:40:42.000Z,4.1
2023-03-27T01:41:55.000Z,4.1
2023-03-27T01:43:07.000Z,4.5
2023-03-27T01:44:19.000Z,5.4
2023-03-27T01:46:21.495Z,4.1
2023-03-27T01:46:43.000Z,4.1
2023-03-27T01:47:56.000Z,2.5
2023-03-27T01:49:08.000Z,5.1
2023-03-27T01:50:20.000Z,4.1
2023-03-27T01:51:32.000Z,4.1
2023-03-27T01:52:44.000Z,4.1
2023-03-27T01:53:56.000Z,2.9
2023-03-27T01:55:09.000Z,2.5
2023-03-27T01:56:20.000Z,0
2023-03-27T01:57:32.000Z,5.8
2023-03-27T01:58:44.000Z,6.1
2023-03-27T01:59:56.000Z,2.2
2023-03-27T02:01:09.000Z,4.5
2023-03-27T02:02:21.000Z,1.9
2023-03-27T02:03:33.000Z,3.8
2023-03-27T02:05:35.463Z,3.2
2023-03-27T02:05:57.000Z,8
2023-03-27T02:07:10.000Z,6.4
2023-03-27T02:08:22.000Z,3.8
2023-03-27T02:09:34.000Z,5.1
2023-03-27T02:10:46.000Z,2.5
2023-03-27T02:11:57.000Z,3.8
2023-03-27T02:13:09.000Z,5.8
2023-03-27T02:14:22.000Z,3.8
2023-03-27T02:15:34.000Z,2.5
2023-03-27T02:16:46.000Z,3.2
2023-03-27T02:17:58.000Z,6.1
2023-03-27T02:19:10.000Z,3.5
2023-03-27T02:20:23.000Z,3.8
2023-03-27T02:21:35.000Z,5.1
2023-03-27T02:22:47.000Z,4.1
2023-03-27T02:23:59.000Z,3.8
2023-03-27T02:25:11.000Z,5.8
2023-03-27T02:26:23.000Z,4.1
2023-03-27T02:27:35.000Z,4.8
2023-03-27T02:29:37.207Z,1.2
2023-03-27T02:29:59.000Z,3.5
2023-03-27T02:31:11.000Z,3.8
2023-03-27T02:33:13.754Z,5.8
2023-03-27T02:33:36.000Z,4.1
2023-03-27T02:35:38.117Z,1.6
2023-03-27T02:36:00.000Z,7.7
2023-03-27T02:37:12.000Z,3.8
2023-03-27T02:38:24.000Z,3.8
2023-03-27T02:39:37.000Z,3.5
2023-03-27T02:40:49.000Z,4.1
2023-03-27T02:42:51.226Z,3.8
2023-03-27T02:43:12.000Z,1.6
2023-03-27T02:44:24.000Z,3.8
2023-03-27T02:45:36.000Z,3.5
2023-03-27T02:46:49.000Z,3.5
2023-03-27T02:48:01.000Z,3.8
2023-03-27T02:49:13.000Z,5.8
2023-03-27T02:50:25.000Z,4.5
2023-03-27T02:51:37.000Z,5.4
2023-03-27T02:52:50.000Z,3.8
2023-03-27T02:54:02.000Z,3.5
2023-03-27T02:55:14.000Z,3.8
2023-03-27T02:56:26.000Z,3.8
2023-03-27T02:57:38.000Z,3.5
2023-03-27T02:58:50.000Z,6.1
2023-03-27T03:00:02.000Z,5.1
2023-03-27T03:01:14.000Z,3.2
2023-03-27T03:02:26.000Z,3.5
2023-03-27T03:03:38.000Z,3.5
2023-03-27T03:04:50.000Z,3.5
2023-03-27T03:06:03.000Z,3.8
2023-03-27T03:07:15.000Z,3.8
2023-03-27T03:08:27.000Z,4.5
2023-03-27T03:09:39.000Z,3.2
2023-03-27T03:10:51.000Z,3.5
2023-03-27T03:12:04.000Z,7
2023-03-27T03:13:16.000Z,3.5
2023-03-27T03:14:27.000Z,3.5
2023-03-27T03:15:39.000Z,2.2
2023-03-27T03:16:51.000Z,3.5
2023-03-27T03:18:03.000Z,3.2
2023-03-27T03:19:16.000Z,3.2
2023-03-27T03:20:28.000Z,3.5
2023-03-27T03:21:40.000Z,6.1
2023-03-27T03:22:52.000Z,3.2
2023-03-27T03:24:04.000Z,5.1
2023-03-27T03:25:17.000Z,1.9
2023-03-27T03:26:29.000Z,1.2
2023-03-27T03:27:41.000Z,3.2
2023-03-27T03:28:53.000Z,4.1
2023-03-27T03:30:04.000Z,2.9
2023-03-27T03:31:17.000Z,3.2
2023-03-27T03:32:29.000Z,3.5
2023-03-27T03:33:41.000Z,3.2
2023-03-27T03:34:53.000Z,3.2
2023-03-27T03:36:05.000Z,3.2
2023-03-27T03:37:17.000Z,0.9
2023-03-27T03:38:30.000Z,1.6
2023-03-27T03:39:42.000Z,4.5
2023-03-27T03:40:54.000Z,3.2
2023-03-27T03:42:06.000Z,2.9
2023-03-27T03:43:18.000Z,3.5
2023-03-27T03:44:31.000Z,2.9
2023-03-27T03:45:42.000Z,2.9
2023-03-27T03:46:54.000Z,1.2
2023-03-27T03:48:06.000Z,3.2
2023-03-27T03:49:18.000Z,2.5
2023-03-27T03:50:30.000Z,1.6
2023-03-27T03:51:43.000Z,2.9
2023-03-27T03:52:55.000Z,2.9
2023-03-27T03:54:07.000Z,0.9
2023-03-27T03:55:19.000Z,0.6
2023-03-27T03:56:31.000Z,2.9
2023-03-27T03:57:44.000Z,3.2
2023-03-27T03:58:56.000Z,2.5
2023-03-27T04:00:08.000Z,4.1
2023-03-27T04:01:19.000Z,2.5
2023-03-27T04:02:31.000Z,2.5
2023-03-27T04:03:44.000Z,0.6
2023-03-27T04:04:56.000Z,4.5
2023-03-27T04:06:08.000Z,3.8
2023-03-27T04:07:20.000Z,3.5
2023-03-27T04:08:32.000Z,2.9
2023-03-27T04:09:44.000Z,4.1
2023-03-27T04:10:57.000Z,4.8
2023-03-27T04:12:09.000Z,4.1
2023-03-27T04:13:21.000Z,5.1
2023-03-27T04:14:33.000Z,0.6
2023-03-27T04:15:45.000Z,2.9
2023-03-27T04:16:57.000Z,3.5
2023-03-27T04:18:09.000Z,2.9
2023-03-27T04:19:21.000Z,2.5
2023-03-27T04:20:33.000Z,2.5
2023-03-27T04:21:45.000Z,2.9
2023-03-27T04:22:57.000Z,2.5
2023-03-27T04:24:09.000Z,2.5
2023-03-27T04:25:21.000Z,3.2
2023-03-27T04:26:33.000Z,3.8
2023-03-27T04:27:45.000Z,0.6
2023-03-27T04:28:57.000Z,0.9
2023-03-27T04:30:10.000Z,2.5
2023-03-27T04:31:22.000Z,4.1
2023-03-27T04:32:34.000Z,1.9
2023-03-27T04:33:46.000Z,2.5
2023-03-27T04:34:58.000Z,4.1
2023-03-27T04:36:11.000Z,1.9
2023-03-27T04:37:23.000Z,2.9
2023-03-27T04:38:35.000Z,4.1
2023-03-27T04:39:46.000Z,2.5
2023-03-27T04:40:58.000Z,3.5
2023-03-27T04:42:10.000Z,4.1
2023-03-27T04:44:13.045Z,2.5
2023-03-27T04:44:35.000Z,0.9
2023-03-27T04:45:47.000Z,2.2
2023-03-27T04:46:59.000Z,2.2
2023-03-27T04:48:11.000Z,2.5
2023-03-27T04:49:24.000Z,2.9
2023-03-27T04:50:36.000Z,2.2
2023-03-27T04:51:48.000Z,1.6
2023-03-27T04:53:00.000Z,4.1
2023-03-27T04:54:12.000Z,3.8
2023-03-27T04:55:23.000Z,1.6
2023-03-27T04:56:36.000Z,2.5
2023-03-27T04:57:48.000Z,2.5
2023-03-27T04:59:00.000Z,-1.7
2023-03-27T05:00:12.000Z,2.2
2023-03-27T05:01:24.000Z,1.2
2023-03-27T05:02:37.000Z,4.1
2023-03-27T05:03:49.000Z,4.8
2023-03-27T05:05:01.000Z,2.5
2023-03-27T05:06:13.000Z,2.5
2023-03-27T05:07:25.000Z,0.3
2023-03-27T05:08:38.000Z,2.5
2023-03-27T05:09:50.000Z,2.2
2023-03-27T05:11:01.000Z,2.5
2023-03-27T05:12:13.000Z,2.2
2023-03-27T05:13:25.000Z,3.5
2023-03-27T05:14:37.000Z,-0.7
2023-03-27T05:15:50.000Z,1.9
2023-03-27T05:17:02.000Z,2.2
2023-03-27T05:19:04.440Z,2.5
2023-03-27T05:20:16.627Z,2.2
2023-03-27T05:20:38.000Z,2.2
2023-03-27T05:21:51.000Z,2.2
2023-03-27T05:23:03.000Z,2.5
2023-03-27T05:24:15.000Z,2.2
2023-03-27T05:25:27.000Z,2.2
2023-03-27T05:26:38.000Z,1.9
2023-03-27T05:28:40.949Z,0.9
2023-03-27T05:29:03.000Z,2.2
2023-03-27T05:30:15.000Z,2.2
2023-03-27T05:31:27.000Z,2.2
2023-03-27T05:32:39.000Z,2.2
2023-03-27T05:33:51.000Z,-0.7
2023-03-27T05:35:04.000Z,2.2
2023-03-27T05:36:16.000Z,1.9
2023-03-27T05:37:28.000Z,4.5
2023-03-27T05:38:40.000Z,1.9
2023-03-27T05:39:52.000Z,0.3
2023-03-27T05:41:05.000Z,2.2
2023-03-27T05:42:16.000Z,2.2
2023-03-27T05:43:28.000Z,1.9
2023-03-27T05:44:40.000Z,0
2023-03-27T05:45:52.000Z,2.2
2023-03-27T05:47:04.000Z,1.9
2023-03-27T05:48:17.000Z,4.1
2023-03-27T05:49:29.000Z,1.9
2023-03-27T05:50:41.000Z,2.2
2023-03-27T05:51:53.000Z,1.9
2023-03-27T05:53:05.000Z,-0.4
2023-03-27T05:54:18.000Z,2.2
2023-03-27T05:55:30.000Z,1.9
2023-03-27T05:56:42.000Z,0.3
2023-03-27T05:57:54.000Z,3.2
2023-03-27T05:59:05.000Z,3.5
2023-03-27T06:00:18.000Z,1.9
2023-03-27T06:01:30.000Z,1.9
2023-03-27T06:02:42.000Z,1.9
2023-03-27T06:03:54.000Z,1.6
2023-03-27T06:05:06.000Z,1.6
2023-03-27T06:06:18.000Z,1.9
2023-03-27T06:08:21.076Z,2.2
2023-03-27T06:08:43.000Z,1.9
2023-03-27T06:09:55.000Z,2.2
2023-03-27T06:11:07.000Z,1.9
2023-03-27T06:12:19.000Z,1.9
2023-03-27T06:13:32.000Z,1.6
2023-03-27T06:14:43.000Z,3.2
2023-03-27T06:16:45.380Z,2.2
2023-03-27T06:17:07.000Z,2.2
2023-03-27T06:18:19.000Z,1.9
2023-03-27T06:19:31.000Z,1.9
2023-03-27T06:20:44.000Z,3.2
2023-03-27T06:21:56.000Z,2.2
2023-03-27T06:23:08.000Z,2.9
2023-03-27T06:24:20.000Z,4.5
2023-03-27T06:25:32.000Z,0.6
2023-03-27T06:26:45.000Z,2.2
2023-03-27T06:27:57.000Z,2.2
2023-03-27T06:29:09.000Z,3.2
2023-03-27T06:30:20.000Z,2.2
2023-03-27T06:31:32.000Z,2.9
2023-03-27T06:32:45.000Z,3.2
2023-03-27T06:33:57.000Z,2.9
2023-03-27T06:35:59.360Z,4.1
2023-03-27T06:36:21.000Z,2.9
2023-03-27T06:37:33.000Z,3.8
2023-03-27T06:38:45.000Z,2.5
2023-03-27T06:39:58.000Z,4.1
2023-03-27T06:41:10.000Z,2.5
2023-03-27T06:42:22.000Z,2.5
2023-03-27T06:43:34.000Z,2.2
2023-03-27T06:44:46.000Z,4.5
2023-03-27T06:45:58.000Z,2.5
2023-03-27T06:47:10.000Z,2.2
2023-03-27T06:48:22.000Z,2.5
2023-03-27T06:49:34.000Z,2.5
2023-03-27T06:50:46.000Z,3.5
2023-03-27T06:51:58.000Z,2.2
2023-03-27T06:53:11.000Z,0.9
2023-03-27T06:54:23.000Z,0.6
2023-03-27T06:55:35.000Z,2.5
2023-03-27T06:56:47.000Z,4.1
2023-03-27T06:57:59.000Z,2.5
2023-03-27T07:00:02.080Z,2.2
2023-03-27T07:00:24.000Z,2.2
2023-03-27T07:01:35.000Z,4.8
2023-03-27T07:02:47.000Z,2.2
2023-03-27T07:03:59.000Z,2.9
2023-03-27T07:06:02.031Z,0.6
2023-03-27T07:06:24.000Z,2.5
2023-03-27T07:07:36.000Z,2.9
2023-03-27T07:08:48.000Z,2.2
2023-03-27T07:10:00.000Z,2.9
2023-03-27T07:11:12.000Z,4.1
2023-03-27T07:12:25.000Z,2.5
2023-03-27T07:13:37.000Z,2.9
2023-03-27T07:14:49.000Z,3.8
2023-03-27T07:16:01.000Z,2.2
2023-03-27T07:17:12.000Z,3.2
2023-03-27T07:18:25.000Z,4.1
2023-03-27T07:19:37.000Z,2.9
2023-03-27T07:20:49.000Z,2.9
2023-03-27T07:22:01.000Z,2.5
2023-03-27T07:23:13.000Z,2.9
2023-03-27T07:24:25.000Z,0.9
2023-03-27T07:25:38.000Z,3.5
2023-03-27T07:26:50.000Z,1.9
2023-03-27T07:28:02.000Z,0.9
2023-03-27T07:29:14.000Z,1.9
2023-03-27T07:30:26.000Z,2.9
2023-03-27T07:31:39.000Z,3.2
2023-03-27T07:32:50.000Z,1.6
2023-03-27T07:34:52.493Z,5.1
2023-03-27T07:35:14.000Z,5.1
2023-03-27T07:36:26.000Z,2.5
2023-03-27T07:37:39.000Z,3.5
2023-03-27T07:38:51.000Z,3.5
2023-03-27T07:40:03.000Z,3.5
2023-03-27T07:41:15.000Z,3.8
2023-03-27T07:42:27.000Z,3.8
2023-03-27T07:43:39.000Z,2.2
2023-03-27T07:44:52.000Z,3.8
2023-03-27T07:46:04.000Z,3.8
2023-03-27T07:47:16.000Z,2.5
2023-03-27T07:48:27.000Z,2.5
2023-03-27T07:49:39.000Z,2.2
2023-03-27T07:50:52.000Z,1.9
2023-03-27T07:52:04.000Z,8
2023-03-27T07:53:16.000Z,4.1
2023-03-27T07:54:28.000Z,4.1
2023-03-27T07:55:40.000Z,6.4
2023-03-27T07:56:52.000Z,4.8
2023-03-27T07:58:05.000Z,2.2
2023-03-27T07:59:17.000Z,6.1
2023-03-27T08:00:29.000Z,3.5
2023-03-27T08:01:41.000Z,7
2023-03-27T08:02:53.000Z,4.8
2023-03-27T08:04:05.000Z,6.4
2023-03-27T08:05:17.000Z,2.9
2023-03-27T08:06:29.000Z,2.9
2023-03-27T08:07:41.000Z,5.1
2023-03-27T08:08:53.000Z,5.1
2023-03-27T08:10:06.000Z,5.1
2023-03-27T08:11:18.000Z,4.8
2023-03-27T08:12:30.000Z,6.7
2023-03-27T08:13:42.000Z,4.8
2023-03-27T08:14:54.000Z,5.1
2023-03-27T08:16:06.000Z,4.8
2023-03-27T08:17:19.000Z,5.1
2023-03-27T08:18:31.000Z,4.5
2023-03-27T08:19:42.000Z,5.4
2023-03-27T08:21:44.755Z,5.8
2023-03-27T08:22:06.000Z,4.5
2023-03-27T08:23:19.000Z,5.4
2023-03-27T08:24:31.000Z,8
2023-03-27T08:25:42.000Z,5.4
2023-03-27T08:26:54.000Z,5.4
2023-03-27T08:28:06.000Z,7.7
2023-03-27T08:29:19.000Z,3.8
2023-03-27T08:30:31.000Z,5.4
2023-03-27T08:31:43.000Z,5.8
2023-03-27T08:34:07.000Z,5.8
2023-03-27T08:35:19.000Z,6.4
2023-03-27T08:36:32.000Z,5.8
2023-03-27T08:37:44.000Z,5.8
2023-03-27T08:38:56.000Z,5.8
2023-03-27T08:40:08.000Z,6.1
2023-03-27T08:41:19.000Z,6.1
2023-03-27T08:42:32.000Z,5.8
2023-03-27T08:44:34.326Z,6.1
2023-03-27T08:45:46.518Z,7.4
2023-03-27T08:46:58.690Z,8
2023-03-27T08:48:10.894Z,6.4
2023-03-27T08:48:32.000Z,8
2023-03-27T08:49:45.000Z,8.3
2023-03-27T08:50:57.000Z,5.4
2023-03-27T08:52:09.000Z,6.7
2023-03-27T08:53:21.000Z,9
2023-03-27T08:54:33.000Z,9.3
2023-03-27T08:55:46.000Z,4.8
2023-03-27T08:56:57.000Z,7
2023-03-27T08:58:09.000Z,5.4
2023-03-27T08:59:21.000Z,7
2023-03-27T09:00:33.000Z,5.1
2023-03-27T09:01:46.000Z,7
2023-03-27T09:02:58.000Z,7
2023-03-27T09:04:10.000Z,7.7
2023-03-27T09:05:22.000Z,7
2023-03-27T09:06:34.000Z,7
2023-03-27T09:07:46.000Z,7
2023-03-27T09:08:59.000Z,6.7
2023-03-27T09:10:11.000Z,7.7
2023-03-27T09:11:23.000Z,7.4
2023-03-27T09:12:34.000Z,5.8
2023-03-27T09:13:46.000Z,8.7
2023-03-27T09:14:59.000Z,5.4
2023-03-27T09:16:11.000Z,9
2023-03-27T09:17:23.000Z,7.4
2023-03-27T09:18:35.000Z,7
2023-03-27T09:19:47.000Z,7
2023-03-27T09:21:00.000Z,6.7
2023-03-27T09:22:12.000Z,5.8
2023-03-27T09:23:24.000Z,8.3
2023-03-27T09:24:36.000Z,7
2023-03-27T09:25:48.000Z,6.7
2023-03-27T09:27:00.000Z,7
2023-03-27T09:28:12.000Z,5.1
2023-03-27T09:29:24.000Z,6.4
2023-03-27T09:30:36.000Z,7.7
2023-03-27T09:31:48.000Z,6.1
2023-03-27T09:33:00.000Z,8
2023-03-27T09:34:13.000Z,7.4
2023-03-27T09:35:25.000Z,5.1
2023-03-27T09:36:37.000Z,7
2023-03-27T09:37:49.000Z,6.7
2023-03-27T09:39:01.000Z,6.7
2023-03-27T09:40:14.000Z,6.7
2023-03-27T09:41:26.000Z,4.8
2023-03-27T09:43:28.482Z,6.7
2023-03-27T09:43:49.000Z,9
2023-03-27T09:45:01.000Z,7
2023-03-27T09:46:13.000Z,6.7
2023-03-27T09:47:26.000Z,9
2023-03-27T09:48:38.000Z,7
2023-03-27T09:49:50.000Z,7
2023-03-27T09:51:02.000Z,4.8
2023-03-27T09:52:14.000Z,5.4
2023-03-27T09:53:27.000Z,5.1
2023-03-27T09:54:39.000Z,5.4
2023-03-27T09:56:41.558Z,6.7
2023-03-27T09:57:03.000Z,7.4
2023-03-27T09:58:15.000Z,5.1
2023-03-27T09:59:26.000Z,8.3
2023-03-27T10:01:29.317Z,7
2023-03-27T10:01:51.000Z,5.4
2023-03-27T10:03:03.000Z,7
2023-03-27T10:04:15.000Z,5.4
2023-03-27T10:05:27.000Z,8
2023-03-27T10:06:40.000Z,7.4
2023-03-27T10:07:52.000Z,7.7
2023-03-27T10:09:04.000Z,9.9
2023-03-27T10:10:16.000Z,5.8
2023-03-27T10:11:28.000Z,7.7
2023-03-27T10:12:41.000Z,7.7
2023-03-27T10:13:53.000Z,7
2023-03-27T10:15:04.000Z,6.4
2023-03-27T10:16:16.000Z,5.4
2023-03-27T10:17:28.000Z,7.4
2023-03-27T10:18:40.000Z,9
2023-03-27T10:19:53.000Z,9.3
2023-03-27T10:21:05.000Z,8
2023-03-27T10:22:17.000Z,7
2023-03-27T10:23:29.000Z,6.4
2023-03-27T10:24:41.000Z,7
2023-03-27T10:25:54.000Z,8
2023-03-27T10:27:06.000Z,8
2023-03-27T10:28:18.000Z,8.3
2023-03-27T10:29:30.000Z,9.3
2023-03-27T10:30:41.000Z,10.3
2023-03-27T10:31:54.000Z,7.4
2023-03-27T10:33:06.000Z,9.3
2023-03-27T10:34:18.000Z,9.3
2023-03-27T10:35:30.000Z,9.6
2023-03-27T10:36:42.000Z,8
2023-03-27T10:37:54.000Z,9.3
2023-03-27T10:39:07.000Z,9
2023-03-27T10:40:19.000Z,7.7
2023-03-27T10:41:31.000Z,11.9
2023-03-27T10:42:43.000Z,12.2
2023-03-27T10:43:55.000Z,9.3
2023-03-27T10:45:08.000Z,9.3
2023-03-27T10:46:19.000Z,9.3
2023-03-27T10:47:31.000Z,9
2023-03-27T10:48:43.000Z,8.3
2023-03-27T10:49:55.000Z,7.7
2023-03-27T10:51:08.000Z,8.3
2023-03-27T10:52:20.000Z,6.7
2023-03-27T10:53:32.000Z,7.7
2023-03-27T10:55:34.741Z,7.4
2023-03-27T10:56:46.924Z,9.9
2023-03-27T10:57:59.102Z,8.7
2023-03-27T10:59:11.288Z,9.6
2023-03-27T10:59:33.000Z,8.7
2023-03-27T11:00:45.000Z,9
2023-03-27T11:01:56.000Z,9.3
2023-03-27T11:03:08.000Z,10.9
2023-03-27T11:04:21.000Z,9
2023-03-27T11:05:33.000Z,9.6
2023-03-27T11:06:45.000Z,9.9
2023-03-27T11:07:57.000Z,9.9
2023-03-27T11:09:09.000Z,11.9
2023-03-27T11:10:21.000Z,9.9
2023-03-27T11:11:34.000Z,10.3
2023-03-27T11:12:46.000Z,12.5
2023-03-27T11:13:58.000Z,9.9
2023-03-27T11:15:10.000Z,9.9
2023-03-27T11:16:22.000Z,10.3
2023-03-27T11:17:34.000Z,10.6
2023-03-27T11:18:46.000Z,10.9
2023-03-27T11:19:58.000Z,10.6
2023-03-27T11:21:10.000Z,9
2023-03-27T11:22:22.000Z,8.3
2023-03-27T11:23:35.000Z,10.6
2023-03-27T11:24:47.000Z,12.2
2023-03-27T11:25:59.000Z,10.9
2023-03-27T11:27:11.000Z,11.2
2023-03-27T11:28:23.000Z,11.2
2023-03-27T11:29:35.000Z,11.6
2023-03-27T11:31:38.386Z,13.8
2023-03-27T11:32:00.000Z,11.9
2023-03-27T11:33:11.000Z,12.8
2023-03-27T11:34:23.000Z,11.9
2023-03-27T11:35:35.000Z,12.5
2023-03-27T11:36:48.000Z,12.5
2023-03-27T11:38:00.000Z,13.8
2023-03-27T11:39:12.000Z,12.5
2023-03-27T11:40:24.000Z,14.8
2023-03-27T11:41:36.000Z,12.5
2023-03-27T11:42:49.000Z,12.8
2023-03-27T11:44:01.000Z,14.1
2023-03-27T11:45:13.000Z,11.2
2023-03-27T11:46:25.000Z,12.2
2023-03-27T11:47:37.000Z,12.8
2023-03-27T11:48:50.000Z,14.8
2023-03-27T11:50:02.000Z,12.5
2023-03-27T11:51:14.000Z,13.2
2023-03-27T11:52:26.000Z,11.6
2023-03-27T11:53:38.000Z,11.2
2023-03-27T11:54:51.000Z,13.5
2023-03-27T11:56:03.000Z,13.8
2023-03-27T11:57:15.000Z,13.2
2023-03-27T11:58:27.000Z,12.8
2023-03-27T11:59:39.000Z,13.2
2023-03-27T12:00:51.000Z,12.8
2023-03-27T12:02:04.000Z,9.9
2023-03-27T12:03:16.000Z,12.8
2023-03-27T12:04:27.000Z,12.8
2023-03-27T12:05:39.000Z,15.4
2023-03-27T12:06:51.000Z,12.5
2023-03-27T12:08:04.000Z,12.5
2023-03-27T12:09:16.000Z,12.8
2023-03-27T12:11:18.704Z,9.6
2023-03-27T12:11:40.000Z,9.6
2023-03-27T12:12:52.000Z,11.2
2023-03-27T12:14:04.000Z,11.2
2023-03-27T12:15:17.000Z,9
2023-03-27T12:16:29.000Z,10.3
2023-03-27T12:17:41.000Z,10.6
2023-03-27T12:18:53.000Z,9.6
2023-03-27T12:20:04.000Z,10.3
2023-03-27T12:21:17.000Z,8.7
2023-03-27T12:22:29.000Z,11.9
2023-03-27T12:23:41.000Z,12.2
2023-03-27T12:24:53.000Z,10.3
2023-03-27T12:26:05.000Z,10.3
2023-03-27T12:27:17.000Z,11.9
2023-03-27T12:28:29.000Z,11.2
2023-03-27T12:29:41.000Z,9.9
2023-03-27T12:30:53.000Z,9.6
2023-03-27T12:32:05.000Z,9.9
2023-03-27T12:33:17.000Z,10.3
2023-03-27T12:34:30.000Z,9.9
2023-03-27T12:35:42.000Z,9.9
2023-03-27T12:36:54.000Z,9.9
2023-03-27T12:38:06.000Z,7.4
2023-03-27T12:39:18.000Z,9.6
2023-03-27T12:40:31.000Z,9.3
2023-03-27T12:41:43.000Z,8.3
2023-03-27T12:42:54.000Z,6.7
2023-03-27T12:44:06.000Z,7.4
2023-03-27T12:45:18.000Z,8
2023-03-27T12:46:31.000Z,9.6
2023-03-27T12:47:43.000Z,9.3
2023-03-27T12:49:45.695Z,11.6
2023-03-27T12:50:07.000Z,7.7
2023-03-27T12:51:19.000Z,11.2
2023-03-27T12:52:31.000Z,9.3
2023-03-27T12:53:44.000Z,7.7
2023-03-27T12:54:56.000Z,7.7
2023-03-27T12:56:08.000Z,9.3
2023-03-27T12:57:20.000Z,6.7
2023-03-27T12:58:31.000Z,9
2023-03-27T12:59:44.000Z,8.3
2023-03-27T13:01:46.590Z,10.6
2023-03-27T13:02:08.000Z,8.3
2023-03-27T13:03:20.000Z,9
2023-03-27T13:04:32.000Z,8
2023-03-27T13:05:45.000Z,8
2023-03-27T13:06:57.000Z,6.1
2023-03-27T13:08:09.000Z,8.3
2023-03-27T13:09:21.000Z,6.7
2023-03-27T13:10:33.000Z,8.3
2023-03-27T13:11:45.000Z,9.6
2023-03-27T13:12:58.000Z,8.3
2023-03-27T13:14:09.000Z,9
2023-03-27T13:15:21.000Z,8.3
2023-03-27T13:16:33.000Z,8
2023-03-27T13:17:45.000Z,7.7
2023-03-27T13:18:58.000Z,6.1
2023-03-27T13:20:10.000Z,7
2023-03-27T13:21:22.000Z,7
2023-03-27T13:22:34.000Z,7.4
2023-03-27T13:23:46.000Z,7.4
2023-03-27T13:24:59.000Z,7.4
2023-03-27T13:26:11.000Z,9.3
2023-03-27T13:27:23.000Z,5.8
2023-03-27T13:28:35.000Z,7.4
2023-03-27T13:29:46.000Z,7.4
2023-03-27T13:30:58.000Z,5.1
2023-03-27T13:32:11.000Z,7.4
2023-03-27T13:33:23.000Z,8.7
2023-03-27T13:34:35.000Z,4.5
2023-03-27T13:35:47.000Z,9.3
2023-03-27T13:36:59.000Z,7
2023-03-27T13:38:12.000Z,6.7
2023-03-27T13:39:24.000Z,9
2023-03-27T13:40:36.000Z,6.7
2023-03-27T13:41:48.000Z,8.3
2023-03-27T13:43:00.000Z,4.8
2023-03-27T13:44:12.000Z,6.1
2023-03-27T13:45:24.000Z,6.4
2023-03-27T13:46:36.000Z,5.1
2023-03-27T13:47:48.000Z,6.1
2023-03-27T13:49:00.000Z,6.4
2023-03-27T13:50:12.000Z,6.7
2023-03-27T13:51:25.000Z,6.7
2023-03-27T13:52:37.000Z,4.8
2023-03-27T13:53:49.000Z,6.4
2023-03-27T13:55:01.000Z,7.4
2023-03-27T13:56:13.000Z,9.9
2023-03-27T13:57:26.000Z,8.7
2023-03-27T13:58:38.000Z,8.3
2023-03-27T13:59:50.000Z,7.7
2023-03-27T14:01:01.000Z,6.7
2023-03-27T14:02:13.000Z,6.7
2023-03-27T14:03:25.000Z,6.7
2023-03-27T14:04:38.000Z,7
2023-03-27T14:05:50.000Z,6.7
2023-03-27T14:07:02.000Z,6.7
2023-03-27T14:08:14.000Z,6.7
2023-03-27T14:09:26.000Z,5.4
2023-03-27T14:10:39.000Z,6.7
2023-03-27T14:11:51.000Z,6.4
2023-03-27T14:13:03.000Z,6.4
2023-03-27T14:14:15.000Z,6.4
2023-03-27T14:15:27.000Z,5.8
2023-03-27T14:16:39.000Z,7.4
2023-03-27T14:17:51.000Z,8
2023-03-27T14:19:03.000Z,5.8
2023-03-27T14:20:15.000Z,5.8
2023-03-27T14:21:27.000Z,3.8
2023-03-27T14:22:39.000Z,5.8
2023-03-27T14:23:52.000Z,6.1
2023-03-27T14:25:04.000Z,5.4
2023-03-27T14:26:16.000Z,5.4
2023-03-27T14:27:28.000Z,4.8
2023-03-27T14:28:40.000Z,3.8
2023-03-27T14:29:53.000Z,3.5
2023-03-27T14:31:05.000Z,5.8
2023-03-27T14:32:16.000Z,7.7
2023-03-27T14:33:28.000Z,6.7
2023-03-27T14:34:40.000Z,5.8
2023-03-27T14:35:53.000Z,3.8
2023-03-27T14:37:05.000Z,6.7
2023-03-27T14:38:17.000Z,5.1
2023-03-27T14:39:29.000Z,3.8
2023-03-27T14:40:41.000Z,5.8
2023-03-27T14:41:53.000Z,5.4
2023-03-27T14:43:06.000Z,5.8
2023-03-27T14:44:18.000Z,7.4
2023-03-27T14:45:30.000Z,7.4
2023-03-27T14:46:42.000Z,4.1
2023-03-27T14:47:53.000Z,5.4
2023-03-27T14:49:06.000Z,5.4
2023-03-27T14:50:18.000Z,4.5
2023-03-27T14:51:30.000Z,4.5
2023-03-27T14:52:42.000Z,5.4
2023-03-27T14:53:54.000Z,5.1
2023-03-27T14:55:07.000Z,5.1
2023-03-27T14:56:19.000Z,5.1
2023-03-27T14:58:21.749Z,5.4
2023-03-27T14:58:43.000Z,7
2023-03-27T14:59:55.000Z,7.7
2023-03-27T15:01:07.000Z,7.4
2023-03-27T15:02:20.000Z,6.1
2023-03-27T15:03:31.000Z,5.4
2023-03-27T15:05:33.879Z,5.1
2023-03-27T15:05:55.000Z,5.4
2023-03-27T15:07:07.000Z,3.2
2023-03-27T15:08:20.000Z,5.1
2023-03-27T15:09:32.000Z,5.1
2023-03-27T15:10:44.000Z,5.1
2023-03-27T15:11:56.000Z,3.8
2023-03-27T15:13:08.000Z,5.1
2023-03-27T15:14:20.000Z,5.4
2023-03-27T15:15:33.000Z,3.5
2023-03-27T15:16:45.000Z,5.4
2023-03-27T15:17:57.000Z,5.1
2023-03-27T15:19:08.000Z,7
2023-03-27T15:20:20.000Z,5.1
2023-03-27T15:21:33.000Z,6.1
2023-03-27T15:22:45.000Z,5.4
2023-03-27T15:23:57.000Z,4.8
2023-03-27T15:25:09.000Z,3.2
2023-03-27T15:26:21.000Z,3.8
2023-03-27T15:27:34.000Z,3.5
2023-03-27T15:28:46.000Z,6.7
2023-03-27T15:29:58.000Z,4.8
2023-03-27T15:31:10.000Z,5.4
2023-03-27T15:32:22.000Z,5.4
2023-03-27T15:33:34.000Z,6.1
2023-03-27T15:34:46.000Z,6.7
2023-03-27T15:35:58.000Z,5.4
2023-03-27T15:37:10.000Z,5.1
2023-03-27T15:38:22.000Z,7
2023-03-27T15:39:34.000Z,5.1
2023-03-27T15:40:47.000Z,4.8
2023-03-27T15:41:59.000Z,4.8
2023-03-27T15:43:11.000Z,7
2023-03-27T15:44:23.000Z,5.1
2023-03-27T15:45:35.000Z,5.1
2023-03-27T15:46:48.000Z,2.5
2023-03-27T15:48:00.000Z,4.5
2023-03-27T15:49:12.000Z,6.7
2023-03-27T15:50:23.000Z,4.1
2023-03-27T15:51:35.000Z,4.8
2023-03-27T15:52:47.000Z,4.8
2023-03-27T15:54:00.000Z,4.5
2023-03-27T15:55:12.000Z,5.1
2023-03-27T15:56:24.000Z,4.8
2023-03-27T15:57:36.000Z,4.8
2023-03-27T15:58:48.000Z,4.5
2023-03-27T16:00:01.000Z,4.8
2023-03-27T16:01:13.000Z,4.5
2023-03-27T16:02:25.000Z,4.8
2023-03-27T16:03:37.000Z,4.1
2023-03-27T16:04:49.000Z,5.1
2023-03-27T16:06:01.000Z,2.2
2023-03-27T16:07:13.000Z,5.4
2023-03-27T16:08:25.000Z,4.1
2023-03-27T16:09:37.000Z,6.1
2023-03-27T16:10:49.000Z,4.5
2023-03-27T16:12:01.000Z,5.8
2023-03-27T16:14:04.567Z,4.5
2023-03-27T16:14:26.000Z,4.5
2023-03-27T16:15:38.000Z,4.5
2023-03-27T16:16:50.000Z,3.8
2023-03-27T16:18:02.000Z,3.5
2023-03-27T16:19:15.000Z,4.5
2023-03-27T16:20:27.000Z,2.2
2023-03-27T16:21:38.000Z,4.5
2023-03-27T16:22:50.000Z,4.1
2023-03-27T16:24:02.000Z,5.8
2023-03-27T16:25:15.000Z,4.1
2023-03-27T16:26:27.000Z,6.4
2023-03-27T16:27:39.000Z,7
2023-03-27T16:28:50.000Z,4.1
2023-03-27T16:30:02.000Z,4.1
2023-03-27T16:31:14.000Z,3.8
2023-03-27T16:32:27.000Z,5.4
2023-03-27T16:33:39.000Z,3.8
2023-03-27T16:34:51.000Z,5.8
2023-03-27T16:36:03.000Z,4.1
2023-03-27T16:37:15.000Z,2.9